createdAt,value
2022-10-05T00:00:51.355Z,99.90
2022-10-05T00:01:54.138Z,99.90
2022-10-05T00:02:56.758Z,99.90
2022-10-05T00:04:18.746Z,99.90
2022-10-05T00:05:29.451Z,99.90
2022-10-05T00:06:33.540Z,99.90
2022-10-05T00:07:36.731Z,99.90
2022-10-05T00:08:39.977Z,99.90
2022-10-05T00:09:46.107Z,99.90
2022-10-05T00:10:49.001Z,99.90
2022-10-05T00:11:53.249Z,99.90
2022-10-05T00:12:58.643Z,99.90
2022-10-05T00:14:03.001Z,99.90
2022-10-05T00:15:12.577Z,99.90
2022-10-05T00:16:21.108Z,99.90
2022-10-05T00:17:26.542Z,99.90
2022-10-05T00:18:29.474Z,99.90
2022-10-05T00:19:35.922Z,99.90
2022-10-05T00:20:40.864Z,99.90
2022-10-05T00:21:43.978Z,99.90
2022-10-05T00:22:47.365Z,99.90
2022-10-05T00:23:51.012Z,99.90
2022-10-05T00:24:58.396Z,99.90
2022-10-05T00:26:19.424Z,99.90
2022-10-05T00:27:42.143Z,99.90
2022-10-05T00:28:44.462Z,99.90
2022-10-05T00:29:48.203Z,99.90
2022-10-05T00:30:50.413Z,99.90
2022-10-05T00:31:52.705Z,99.90
2022-10-05T00:32:59.308Z,99.90
2022-10-05T00:34:02.282Z,99.90
2022-10-05T00:35:04.857Z,99.90
2022-10-05T00:36:07.753Z,99.90
2022-10-05T00:37:10.366Z,99.90
2022-10-05T00:38:12.644Z,99.90
2022-10-05T00:39:14.819Z,99.90
2022-10-05T00:40:26.578Z,99.90
2022-10-05T00:41:46.953Z,99.90
2022-10-05T00:43:02.168Z,99.90
2022-10-05T00:44:17.560Z,99.90
2022-10-05T00:45:35.619Z,99.90
2022-10-05T00:46:52.928Z,99.90
2022-10-05T00:48:05.516Z,99.90
2022-10-05T00:49:40.308Z,99.90
2022-10-05T00:50:54.282Z,99.90
2022-10-05T00:52:23.090Z,99.90
2022-10-05T00:53:35.615Z,99.90
2022-10-05T00:54:48.013Z,99.90
2022-10-05T00:56:30.857Z,99.90
2022-10-05T00:57:39.103Z,99.90
2022-10-05T00:59:16.458Z,99.90
2022-10-05T01:00:23.603Z,99.90
2022-10-05T01:01:25.708Z,99.90
2022-10-05T01:02:40.308Z,99.90
2022-10-05T01:04:00.549Z,99.90
2022-10-05T01:05:27.411Z,99.90
2022-10-05T01:06:39.466Z,99.90
2022-10-05T01:08:09.616Z,99.90
2022-10-05T01:09:34.788Z,99.90
2022-10-05T01:10:58.603Z,99.90
2022-10-05T01:12:22.726Z,99.90
2022-10-05T01:13:30.979Z,99.90
2022-10-05T01:14:48.776Z,99.90
2022-10-05T01:16:06.629Z,99.90
2022-10-05T01:17:17.251Z,99.90
2022-10-05T01:18:26.613Z,99.90
2022-10-05T01:19:58.169Z,99.90
2022-10-05T01:21:00.229Z,99.90
2022-10-05T01:22:41.552Z,99.90
2022-10-05T01:24:24.339Z,99.90
2022-10-05T01:25:32.396Z,99.90
2022-10-05T01:26:55.510Z,99.90
2022-10-05T01:28:10.369Z,99.90
2022-10-05T01:30:03.540Z,99.90
2022-10-05T01:31:26.916Z,99.90
2022-10-05T01:32:34.734Z,99.90
2022-10-05T01:33:46.479Z,99.90
2022-10-05T01:35:01.280Z,99.90
2022-10-05T01:36:30.524Z,99.90
2022-10-05T01:38:03.711Z,99.90
2022-10-05T01:39:41.948Z,99.90
2022-10-05T01:41:04.595Z,99.90
2022-10-05T01:42:34.585Z,99.90
2022-10-05T01:44:01.152Z,99.90
2022-10-05T01:45:13.066Z,99.90
2022-10-05T01:46:21.392Z,99.90
2022-10-05T01:47:39.455Z,99.90
2022-10-05T01:49:18.749Z,99.90
2022-10-05T01:51:02.391Z,99.90
2022-10-05T01:52:28.745Z,99.90
2022-10-05T01:54:05.042Z,99.90
2022-10-05T01:55:37.526Z,99.90
2022-10-05T01:56:57.372Z,99.90
2022-10-05T01:58:26.636Z,99.90
2022-10-05T01:59:58.960Z,99.90
2022-10-05T02:01:05.478Z,99.90
2022-10-05T02:02:13.170Z,99.90
2022-10-05T02:03:28.632Z,99.90
2022-10-05T02:05:07.387Z,99.90
2022-10-05T02:06:38.447Z,99.90
2022-10-05T02:07:49.305Z,99.90
2022-10-05T02:09:10.048Z,99.90
2022-10-05T02:10:19.100Z,99.90
2022-10-05T02:11:21.403Z,99.90
2022-10-05T02:12:29.606Z,99.90
2022-10-05T02:13:44.931Z,99.90
2022-10-05T02:15:03.834Z,99.90
2022-10-05T02:16:31.848Z,99.90
2022-10-05T02:17:42.386Z,99.90
2022-10-05T02:18:51.012Z,99.90
2022-10-05T02:20:01.836Z,99.90
2022-10-05T02:21:05.532Z,99.90
2022-10-05T02:22:15.133Z,99.90
2022-10-05T02:23:25.425Z,99.90
2022-10-05T02:24:36.306Z,99.90
2022-10-05T02:25:42.922Z,99.90
2022-10-05T02:26:47.350Z,99.90
2022-10-05T02:27:58.545Z,99.90
2022-10-05T02:29:08.249Z,99.90
2022-10-05T02:30:16.199Z,99.90
2022-10-05T02:31:54.774Z,99.90
2022-10-05T02:33:28.316Z,99.90
2022-10-05T02:34:38.131Z,99.90
2022-10-05T02:35:47.465Z,99.90
2022-10-05T02:37:19.872Z,99.90
2022-10-05T02:38:46.144Z,99.90
2022-10-05T02:40:27.926Z,99.90
2022-10-05T02:41:59.127Z,99.90
2022-10-05T02:43:21.522Z,99.90
2022-10-05T02:44:38.625Z,99.90
2022-10-05T02:45:59.127Z,99.90
2022-10-05T02:47:19.525Z,99.90
2022-10-05T02:48:36.844Z,99.90
2022-10-05T02:49:46.373Z,99.90
2022-10-05T02:50:55.902Z,99.90
2022-10-05T02:52:18.798Z,99.90
2022-10-05T02:54:06.628Z,99.90
2022-10-05T02:55:31.516Z,99.90
2022-10-05T02:56:56.606Z,99.90
2022-10-05T02:58:11.830Z,99.90
2022-10-05T02:59:36.331Z,99.90
2022-10-05T03:00:49.141Z,99.90
2022-10-05T03:02:11.968Z,99.90
2022-10-05T03:03:39.398Z,99.90
2022-10-05T03:05:04.098Z,99.90
2022-10-05T03:06:31.482Z,99.90
2022-10-05T03:08:06.753Z,99.90
2022-10-05T03:09:11.585Z,99.90
2022-10-05T03:10:54.892Z,99.90
2022-10-05T03:12:23.287Z,99.90
2022-10-05T03:13:34.828Z,99.90
2022-10-05T03:14:58.838Z,99.90
2022-10-05T03:16:11.796Z,99.90
2022-10-05T03:17:27.246Z,99.90
2022-10-05T03:18:44.551Z,99.90
2022-10-05T03:20:05.423Z,99.90
2022-10-05T03:21:29.109Z,99.90
2022-10-05T03:22:50.395Z,99.90
2022-10-05T03:24:24.517Z,99.90
2022-10-05T03:25:48.020Z,99.90
2022-10-05T03:27:06.092Z,99.90
2022-10-05T03:28:17.687Z,99.90
2022-10-05T03:29:47.185Z,99.90
2022-10-05T03:31:14.993Z,99.90
2022-10-05T03:32:49.633Z,99.90
2022-10-05T03:34:08.163Z,99.90
2022-10-05T03:35:18.655Z,99.90
2022-10-05T03:36:26.812Z,99.90
2022-10-05T03:37:34.634Z,99.90
2022-10-05T03:38:55.657Z,99.90
2022-10-05T03:40:03.318Z,99.90
2022-10-05T03:41:42.137Z,99.90
2022-10-05T03:43:04.968Z,99.90
2022-10-05T03:44:26.305Z,99.90
2022-10-05T03:45:48.807Z,99.90
2022-10-05T03:47:05.620Z,99.90
2022-10-05T03:48:27.740Z,99.90
2022-10-05T03:49:29.802Z,99.90
2022-10-05T03:51:00.389Z,99.90
2022-10-05T03:52:19.387Z,99.90
2022-10-05T03:53:27.405Z,99.90
2022-10-05T03:54:36.629Z,99.90
2022-10-05T03:55:50.730Z,99.90
2022-10-05T03:56:59.822Z,99.90
2022-10-05T03:58:24.248Z,99.90
2022-10-05T03:59:38.131Z,99.90
2022-10-05T04:00:43.825Z,99.90
2022-10-05T04:01:51.810Z,99.90
2022-10-05T04:03:02.390Z,99.90
2022-10-05T04:04:09.902Z,99.90
2022-10-05T04:05:21.883Z,99.90
2022-10-05T04:06:44.400Z,99.90
2022-10-05T04:08:01.474Z,99.90
2022-10-05T04:09:23.090Z,99.90
2022-10-05T04:10:48.394Z,99.90
2022-10-05T04:12:03.353Z,99.90
2022-10-05T04:13:23.127Z,99.90
2022-10-05T04:14:46.998Z,99.90
2022-10-05T04:15:55.787Z,99.90
2022-10-05T04:17:13.283Z,99.90
2022-10-05T04:18:28.496Z,99.90
2022-10-05T04:19:44.392Z,99.90
2022-10-05T04:20:54.342Z,99.90
2022-10-05T04:22:19.826Z,99.90
2022-10-05T04:23:53.664Z,99.90
2022-10-05T04:25:02.496Z,99.90
2022-10-05T04:26:37.521Z,99.90
2022-10-05T04:28:29.637Z,99.90
2022-10-05T04:29:54.227Z,99.90
2022-10-05T04:30:58.791Z,99.90
2022-10-05T04:32:06.942Z,99.90
2022-10-05T04:33:12.885Z,99.90
2022-10-05T04:34:41.712Z,99.90
2022-10-05T04:36:23.895Z,99.90
2022-10-05T04:38:09.560Z,99.90
2022-10-05T04:39:38.180Z,99.90
2022-10-05T04:41:25.865Z,99.90
2022-10-05T04:42:40.444Z,99.90
2022-10-05T04:44:09.619Z,99.90
2022-10-05T04:45:36.266Z,99.90
2022-10-05T04:47:16.173Z,99.90
2022-10-05T04:48:30.517Z,99.90
2022-10-05T04:49:51.754Z,99.90
2022-10-05T04:51:02.735Z,99.90
2022-10-05T04:52:26.306Z,99.90
2022-10-05T04:53:40.030Z,99.90
2022-10-05T04:55:20.835Z,99.90
2022-10-05T04:56:49.829Z,99.90
2022-10-05T04:58:13.571Z,99.90
2022-10-05T04:59:28.285Z,99.90
2022-10-05T05:01:04.615Z,99.90
2022-10-05T05:02:17.896Z,99.90
2022-10-05T05:03:32.721Z,99.90
2022-10-05T05:05:02.512Z,99.90
2022-10-05T05:06:44.454Z,99.90
2022-10-05T05:08:10.167Z,99.90
2022-10-05T05:09:45.303Z,99.90
2022-10-05T05:11:17.383Z,99.90
2022-10-05T05:12:41.824Z,99.90
2022-10-05T05:14:00.106Z,99.90
2022-10-05T05:15:26.600Z,99.90
2022-10-05T05:16:50.551Z,99.90
2022-10-05T05:18:24.556Z,99.90
2022-10-05T05:19:43.732Z,99.90
2022-10-05T05:21:06.244Z,99.90
2022-10-05T05:22:19.694Z,99.90
2022-10-05T05:23:28.147Z,99.90
2022-10-05T05:25:06.193Z,99.90
2022-10-05T05:26:33.539Z,99.90
2022-10-05T05:28:03.181Z,99.90
2022-10-05T05:29:47.201Z,99.90
2022-10-05T05:31:42.672Z,99.90
2022-10-05T05:33:00.413Z,99.90
2022-10-05T05:34:10.567Z,99.90
2022-10-05T05:35:34.194Z,99.90
2022-10-05T05:37:18.303Z,99.90
2022-10-05T05:38:23.369Z,99.90
2022-10-05T05:40:02.453Z,99.90
2022-10-05T05:41:10.571Z,99.90
2022-10-05T05:42:17.848Z,99.90
2022-10-05T05:43:43.969Z,99.90
2022-10-05T05:44:50.678Z,99.90
2022-10-05T05:45:52.956Z,99.90
2022-10-05T05:47:37.996Z,99.90
2022-10-05T05:48:46.706Z,99.90
2022-10-05T05:50:11.128Z,99.90
2022-10-05T05:51:25.531Z,99.90
2022-10-05T05:52:42.067Z,99.90
2022-10-05T05:53:52.907Z,99.90
2022-10-05T05:55:20.951Z,99.90
2022-10-05T05:56:40.304Z,99.90
2022-10-05T05:58:00.732Z,99.90
2022-10-05T05:59:25.379Z,99.90
2022-10-05T06:00:37.666Z,99.90
2022-10-05T06:01:46.253Z,99.90
2022-10-05T06:02:54.925Z,99.90
2022-10-05T06:04:03.683Z,99.90
2022-10-05T06:05:29.148Z,99.90
2022-10-05T06:06:35.743Z,99.90
2022-10-05T06:07:38.764Z,99.90
2022-10-05T06:08:53.853Z,99.90
2022-10-05T06:10:28.344Z,99.90
2022-10-05T06:11:49.445Z,99.90
2022-10-05T06:12:58.507Z,99.90
2022-10-05T06:14:16.441Z,99.90
2022-10-05T06:15:36.865Z,99.90
2022-10-05T06:16:46.618Z,99.90
2022-10-05T06:17:54.759Z,99.90
2022-10-05T06:19:05.071Z,99.90
2022-10-05T06:20:26.691Z,99.90
2022-10-05T06:22:04.358Z,99.90
2022-10-05T06:23:50.920Z,99.90
2022-10-05T06:25:15.054Z,99.90
2022-10-05T06:26:28.435Z,99.90
2022-10-05T06:27:37.271Z,99.90
2022-10-05T06:28:41.452Z,99.90
2022-10-05T06:30:02.024Z,99.90
2022-10-05T06:31:20.416Z,99.90
2022-10-05T06:32:29.389Z,99.90
2022-10-05T06:34:05.933Z,99.90
2022-10-05T06:35:14.134Z,99.90
2022-10-05T06:37:01.899Z,99.90
2022-10-05T06:38:16.538Z,99.90
2022-10-05T06:39:44.111Z,99.90
2022-10-05T06:41:19.788Z,99.90
2022-10-05T06:42:46.869Z,99.90
2022-10-05T06:44:09.753Z,99.90
2022-10-05T06:45:35.251Z,99.90
2022-10-05T06:47:23.103Z,99.90
2022-10-05T06:48:58.141Z,99.90
2022-10-05T06:50:33.357Z,99.90
2022-10-05T06:52:39.990Z,99.90
2022-10-05T06:54:17.942Z,99.90
2022-10-05T06:55:43.020Z,99.90
2022-10-05T06:57:12.408Z,99.90
2022-10-05T06:58:23.231Z,99.90
2022-10-05T06:59:54.541Z,99.90
2022-10-05T07:01:11.305Z,99.90
2022-10-05T07:02:39.813Z,99.90
2022-10-05T07:04:17.464Z,99.90
2022-10-05T07:05:38.596Z,99.90
2022-10-05T07:06:45.168Z,99.90
2022-10-05T07:07:57.582Z,99.90
2022-10-05T07:09:39.526Z,99.90
2022-10-05T07:11:21.179Z,99.90
2022-10-05T07:13:00.828Z,99.90
2022-10-05T07:14:14.245Z,99.90
2022-10-05T07:15:31.790Z,99.90
2022-10-05T07:16:59.979Z,99.90
2022-10-05T07:18:26.489Z,99.90
2022-10-05T07:20:25.368Z,99.90
2022-10-05T07:21:35.818Z,99.90
2022-10-05T07:23:03.300Z,99.90
2022-10-05T07:24:24.387Z,99.90
2022-10-05T07:25:42.491Z,99.90
2022-10-05T07:26:58.604Z,99.90
2022-10-05T07:28:20.029Z,99.90
2022-10-05T07:29:30.057Z,99.90
2022-10-05T07:31:09.501Z,99.90
2022-10-05T07:32:20.710Z,99.90
2022-10-05T07:33:40.119Z,99.90
2022-10-05T07:34:53.644Z,99.90
2022-10-05T07:36:22.675Z,99.90
2022-10-05T07:37:57.769Z,99.90
2022-10-05T07:39:12.889Z,99.90
2022-10-05T07:40:28.160Z,99.90
2022-10-05T07:41:43.725Z,99.90
2022-10-05T07:42:57.962Z,99.90
2022-10-05T07:44:13.247Z,99.90
2022-10-05T07:45:29.145Z,99.90
2022-10-05T07:46:50.393Z,99.90
2022-10-05T07:48:07.167Z,99.90
2022-10-05T07:49:18.525Z,99.90
2022-10-05T07:50:32.151Z,99.90
2022-10-05T07:51:45.285Z,99.90
2022-10-05T07:53:11.042Z,99.90
2022-10-05T07:54:33.475Z,99.90
2022-10-05T07:55:40.796Z,99.90
2022-10-05T07:57:24.279Z,99.90
2022-10-05T07:58:40.445Z,99.90
2022-10-05T07:59:55.983Z,99.90
2022-10-05T08:01:10.058Z,99.90
2022-10-05T08:02:26.263Z,99.90
2022-10-05T08:04:08.720Z,99.50
2022-10-05T08:05:28.460Z,99.00
2022-10-05T08:07:13.437Z,99.10
2022-10-05T08:08:48.228Z,98.60
2022-10-05T08:10:15.377Z,98.80
2022-10-05T08:11:22.127Z,98.60
2022-10-05T08:12:51.208Z,98.20
2022-10-05T08:14:00.611Z,98.70
2022-10-05T08:15:12.119Z,98.70
2022-10-05T08:16:14.900Z,97.40
2022-10-05T08:17:45.381Z,97.30
2022-10-05T08:19:08.667Z,97.60
2022-10-05T08:20:47.809Z,97.60
2022-10-05T08:22:00.687Z,97.50
2022-10-05T08:23:31.212Z,97.60
2022-10-05T08:25:02.130Z,96.60
2022-10-05T08:26:10.442Z,96.20
2022-10-05T08:27:26.141Z,95.30
2022-10-05T08:28:55.461Z,95.30
2022-10-05T08:30:05.246Z,94.90
2022-10-05T08:31:22.766Z,94.30
2022-10-05T08:33:07.976Z,94.20
2022-10-05T08:34:31.403Z,94.20
2022-10-05T08:35:49.367Z,93.80
2022-10-05T08:37:07.141Z,93.10
2022-10-05T08:38:16.818Z,92.80
2022-10-05T08:39:21.654Z,92.50
2022-10-05T08:40:48.035Z,91.40
2022-10-05T08:42:17.605Z,91.20
2022-10-05T08:43:35.581Z,90.90
2022-10-05T08:44:56.362Z,90.20
2022-10-05T08:46:07.261Z,88.70
2022-10-05T08:47:29.330Z,87.30
2022-10-05T08:48:37.348Z,87.20
2022-10-05T08:49:48.587Z,86.40
2022-10-05T08:51:15.691Z,85.80
2022-10-05T08:52:52.914Z,84.40
2022-10-05T08:54:19.132Z,83.70
2022-10-05T08:55:38.260Z,84.00
2022-10-05T08:56:43.293Z,84.20
2022-10-05T08:57:51.186Z,83.20
2022-10-05T08:59:15.104Z,81.80
2022-10-05T09:00:20.757Z,82.10
2022-10-05T09:02:02.290Z,82.00
2022-10-05T09:03:25.894Z,81.20
2022-10-05T09:04:49.521Z,78.90
2022-10-05T09:05:51.650Z,78.70
2022-10-05T09:06:53.807Z,74.00
2022-10-05T09:07:55.845Z,72.70
2022-10-05T09:09:23.731Z,71.60
2022-10-05T09:10:25.897Z,70.60
2022-10-05T09:11:37.113Z,70.00
2022-10-05T09:13:00.182Z,68.30
2022-10-05T09:14:31.839Z,69.00
2022-10-05T09:16:02.414Z,69.00
2022-10-05T09:17:18.509Z,68.40
2022-10-05T09:18:23.903Z,67.20
2022-10-05T09:19:53.415Z,67.10
2022-10-05T09:21:00.877Z,68.50
2022-10-05T09:22:26.847Z,67.40
2022-10-05T09:23:45.056Z,65.70
2022-10-05T09:25:05.932Z,65.10
2022-10-05T09:26:46.761Z,64.60
2022-10-05T09:28:25.081Z,65.60
2022-10-05T09:29:33.492Z,65.10
2022-10-05T09:30:47.883Z,65.60
2022-10-05T09:32:20.186Z,66.00
2022-10-05T09:33:31.721Z,65.80
2022-10-05T09:34:53.759Z,66.10
2022-10-05T09:35:58.593Z,65.10
2022-10-05T09:37:22.086Z,65.70
2022-10-05T09:39:09.248Z,65.50
2022-10-05T09:40:47.661Z,64.80
2022-10-05T09:42:24.429Z,65.30
2022-10-05T09:43:40.943Z,63.10
2022-10-05T09:45:11.642Z,63.80
2022-10-05T09:46:37.553Z,63.40
2022-10-05T09:48:04.259Z,62.20
2022-10-05T09:49:28.566Z,62.10
2022-10-05T09:51:09.874Z,61.60
2022-10-05T09:52:21.366Z,62.90
2022-10-05T09:53:54.730Z,62.40
2022-10-05T09:55:35.222Z,63.00
2022-10-05T09:57:03.651Z,63.80
2022-10-05T09:58:48.502Z,62.80
2022-10-05T10:00:30.084Z,61.30
2022-10-05T10:01:35.265Z,59.20
2022-10-05T10:03:05.524Z,59.40
2022-10-05T10:04:48.041Z,58.30
2022-10-05T10:06:11.271Z,57.90
2022-10-05T10:07:21.224Z,58.00
2022-10-05T10:08:32.831Z,58.10
2022-10-05T10:10:17.168Z,60.90
2022-10-05T10:11:47.736Z,61.60
2022-10-05T10:13:11.581Z,61.50
2022-10-05T10:14:19.572Z,59.50
2022-10-05T10:15:46.476Z,58.30
2022-10-05T10:17:47.519Z,58.90
2022-10-05T10:19:16.665Z,59.50
2022-10-05T10:20:48.870Z,59.10
2022-10-05T10:22:24.760Z,59.30
2022-10-05T10:24:00.356Z,59.30
2022-10-05T10:25:35.752Z,59.80
2022-10-05T10:27:05.584Z,59.00
2022-10-05T10:28:29.078Z,58.10
2022-10-05T10:29:46.758Z,57.30
2022-10-05T10:31:00.477Z,55.90
2022-10-05T10:33:01.721Z,55.40
2022-10-05T10:34:22.314Z,55.30
2022-10-05T10:35:49.471Z,56.10
2022-10-05T10:37:19.211Z,55.70
2022-10-05T10:38:28.746Z,54.80
2022-10-05T10:40:07.982Z,55.40
2022-10-05T10:41:29.015Z,56.60
2022-10-05T10:42:49.990Z,58.00
2022-10-05T10:44:18.918Z,58.00
2022-10-05T10:45:32.218Z,56.50
2022-10-05T10:47:08.140Z,55.80
2022-10-05T10:48:31.699Z,55.80
2022-10-05T10:50:05.134Z,55.90
2022-10-05T10:51:10.125Z,54.70
2022-10-05T10:52:12.349Z,54.70
2022-10-05T10:53:17.345Z,55.80
2022-10-05T10:54:19.484Z,57.00
2022-10-05T10:55:54.920Z,57.00
2022-10-05T10:56:59.846Z,57.90
2022-10-05T10:58:26.435Z,56.50
2022-10-05T10:59:41.601Z,56.60
2022-10-05T11:01:08.185Z,56.40
2022-10-05T11:02:47.310Z,56.50
2022-10-05T11:04:19.956Z,57.40
2022-10-05T11:05:51.454Z,58.30
2022-10-05T11:06:59.239Z,58.40
2022-10-05T11:08:38.218Z,57.90
2022-10-05T11:09:52.799Z,58.40
2022-10-05T11:11:13.423Z,58.10
2022-10-05T11:12:46.492Z,57.80
2022-10-05T11:14:08.087Z,58.80
2022-10-05T11:15:36.624Z,58.20
2022-10-05T11:16:51.121Z,58.30
2022-10-05T11:18:06.912Z,58.00
2022-10-05T11:19:35.075Z,57.40
2022-10-05T11:21:08.484Z,57.70
2022-10-05T11:22:22.898Z,57.60
2022-10-05T11:23:39.045Z,57.30
2022-10-05T11:25:09.913Z,57.00
2022-10-05T11:26:44.160Z,58.10
2022-10-05T11:28:14.794Z,57.70
2022-10-05T11:29:22.937Z,57.80
2022-10-05T11:31:05.553Z,57.80
2022-10-05T11:32:26.704Z,57.80
2022-10-05T11:34:11.491Z,56.70
2022-10-05T11:35:34.261Z,57.20
2022-10-05T11:36:48.325Z,56.50
2022-10-05T11:38:09.630Z,56.60
2022-10-05T11:39:23.596Z,56.60
2022-10-05T11:40:26.770Z,56.50
2022-10-05T11:41:50.875Z,56.60
2022-10-05T11:43:01.115Z,56.40
2022-10-05T11:44:25.085Z,55.70
2022-10-05T11:45:50.555Z,56.50
2022-10-05T11:47:17.039Z,56.20
2022-10-05T11:48:55.569Z,56.70
2022-10-05T11:50:30.520Z,55.20
2022-10-05T11:51:55.176Z,54.40
2022-10-05T11:53:23.621Z,55.20
2022-10-05T11:55:09.997Z,54.90
2022-10-05T11:56:27.370Z,55.30
2022-10-05T11:57:37.938Z,54.60
2022-10-05T11:59:18.927Z,53.70
2022-10-05T12:00:30.786Z,55.50
2022-10-05T12:01:36.558Z,56.20
2022-10-05T12:03:10.940Z,56.70
2022-10-05T12:04:36.815Z,56.70
2022-10-05T12:06:05.522Z,57.40
2022-10-05T12:07:34.090Z,56.80
2022-10-05T12:09:11.519Z,56.70
2022-10-05T12:10:45.002Z,56.20
2022-10-05T12:11:58.006Z,56.30
2022-10-05T12:13:21.655Z,56.00
2022-10-05T12:14:26.867Z,56.40
2022-10-05T12:15:40.970Z,55.10
2022-10-05T12:17:01.283Z,54.90
2022-10-05T12:18:08.601Z,55.00
2022-10-05T12:19:43.198Z,54.70
2022-10-05T12:21:06.350Z,55.00
2022-10-05T12:22:21.957Z,53.60
2022-10-05T12:23:42.708Z,54.20
2022-10-05T12:25:14.652Z,53.90
2022-10-05T12:26:44.797Z,54.40
2022-10-05T12:27:51.386Z,54.50
2022-10-05T12:28:58.987Z,54.50
2022-10-05T12:30:06.418Z,53.60
2022-10-05T12:31:45.726Z,53.70
2022-10-05T12:33:02.090Z,53.60
2022-10-05T12:34:22.122Z,52.90
2022-10-05T12:35:49.517Z,52.00
2022-10-05T12:37:13.315Z,51.80
2022-10-05T12:38:22.122Z,52.60
2022-10-05T12:39:50.042Z,52.80
2022-10-05T12:41:07.365Z,51.40
2022-10-05T12:42:38.109Z,53.60
2022-10-05T12:43:57.989Z,54.60
2022-10-05T12:45:09.531Z,55.60
2022-10-05T12:46:35.146Z,55.30
2022-10-05T12:48:08.417Z,54.90
2022-10-05T12:49:28.652Z,55.50
2022-10-05T12:50:34.742Z,54.50
2022-10-05T12:51:55.858Z,54.10
2022-10-05T12:52:57.910Z,54.50
2022-10-05T12:54:32.673Z,54.20
2022-10-05T12:55:37.854Z,55.60
2022-10-05T12:57:12.903Z,53.80
2022-10-05T12:58:39.787Z,53.70
2022-10-05T12:59:50.730Z,55.30
2022-10-05T13:01:06.050Z,54.60
2022-10-05T13:02:45.605Z,55.40
2022-10-05T13:04:04.347Z,55.90
2022-10-05T13:05:09.657Z,55.40
2022-10-05T13:06:41.057Z,56.10
2022-10-05T13:07:46.364Z,54.70
2022-10-05T13:09:11.407Z,54.20
2022-10-05T13:10:19.625Z,54.00
2022-10-05T13:11:30.438Z,54.20
2022-10-05T13:12:57.107Z,54.30
2022-10-05T13:14:18.333Z,55.60
2022-10-05T13:15:47.190Z,56.10
2022-10-05T13:17:27.803Z,56.20
2022-10-05T13:19:07.385Z,55.80
2022-10-05T13:20:41.292Z,54.50
2022-10-05T13:21:46.216Z,54.90
2022-10-05T13:23:02.250Z,55.70
2022-10-05T13:24:17.467Z,55.40
2022-10-05T13:25:34.682Z,55.00
2022-10-05T13:26:44.514Z,55.30
2022-10-05T13:28:22.058Z,55.90
2022-10-05T13:30:02.572Z,56.10
2022-10-05T13:31:16.239Z,56.40
2022-10-05T13:32:26.439Z,56.20
2022-10-05T13:33:58.085Z,57.20
2022-10-05T13:35:22.221Z,56.50
2022-10-05T13:37:03.913Z,56.20
2022-10-05T13:38:27.025Z,56.20
2022-10-05T13:39:40.747Z,56.50
2022-10-05T13:41:11.619Z,56.60
2022-10-05T13:42:21.980Z,56.60
2022-10-05T13:43:35.156Z,56.80
2022-10-05T13:44:53.591Z,56.50
2022-10-05T13:46:20.176Z,56.40
2022-10-05T13:47:48.770Z,56.60
2022-10-05T13:49:26.650Z,57.50
2022-10-05T13:50:33.703Z,56.80
2022-10-05T13:51:36.001Z,56.80
2022-10-05T13:52:44.045Z,56.90
2022-10-05T13:54:01.263Z,56.40
2022-10-05T13:55:26.751Z,56.90
2022-10-05T13:56:46.559Z,56.70
2022-10-05T13:58:05.997Z,56.40
2022-10-05T13:59:35.381Z,57.00
2022-10-05T14:00:48.431Z,57.00
2022-10-05T14:02:05.979Z,56.70
2022-10-05T14:03:35.190Z,56.90
2022-10-05T14:05:00.981Z,57.80
2022-10-05T14:06:27.666Z,57.70
2022-10-05T14:07:36.883Z,57.90
2022-10-05T14:08:52.627Z,58.20
2022-10-05T14:09:55.216Z,58.00
2022-10-05T14:10:58.895Z,58.50
2022-10-05T14:12:06.699Z,58.80
2022-10-05T14:13:45.437Z,57.90
2022-10-05T14:14:51.918Z,58.50
2022-10-05T14:16:18.203Z,58.10
2022-10-05T14:17:32.991Z,58.20
2022-10-05T14:18:37.882Z,58.40
2022-10-05T14:19:51.251Z,58.40
2022-10-05T14:21:08.595Z,58.50
2022-10-05T14:22:24.623Z,58.50
2022-10-05T14:23:27.783Z,58.90
2022-10-05T14:24:44.642Z,58.90
2022-10-05T14:25:53.928Z,58.50
2022-10-05T14:26:57.663Z,58.80
2022-10-05T14:28:25.553Z,59.30
2022-10-05T14:29:38.634Z,59.10
2022-10-05T14:30:58.933Z,59.30
2022-10-05T14:32:15.608Z,59.80
2022-10-05T14:33:17.913Z,60.10
2022-10-05T14:34:34.646Z,60.30
2022-10-05T14:35:53.407Z,60.50
2022-10-05T14:36:58.524Z,60.60
2022-10-05T14:38:03.129Z,59.60
2022-10-05T14:39:13.817Z,59.50
2022-10-05T14:40:39.296Z,59.50
2022-10-05T14:41:50.803Z,60.40
2022-10-05T14:42:53.512Z,61.10
2022-10-05T14:44:16.348Z,62.00
2022-10-05T14:45:20.678Z,63.00
2022-10-05T14:46:28.405Z,64.00
2022-10-05T14:47:32.300Z,63.60
2022-10-05T14:48:46.073Z,63.60
2022-10-05T14:50:10.831Z,64.60
2022-10-05T14:51:32.214Z,65.00
2022-10-05T14:52:35.895Z,65.40
2022-10-05T14:53:44.024Z,66.50
2022-10-05T14:54:59.412Z,66.60
2022-10-05T14:56:05.325Z,66.90
2022-10-05T14:57:19.359Z,66.20
2022-10-05T14:58:35.091Z,66.40
2022-10-05T14:59:56.916Z,66.40
2022-10-05T15:01:13.890Z,67.80
2022-10-05T15:02:48.601Z,69.10
2022-10-05T15:04:29.483Z,69.10
2022-10-05T15:05:41.500Z,69.90
2022-10-05T15:07:05.534Z,70.40
2022-10-05T15:08:14.843Z,70.90
2022-10-05T15:09:53.574Z,70.70
2022-10-05T15:11:00.103Z,71.10
2022-10-05T15:12:14.350Z,71.80
2022-10-05T15:13:24.088Z,72.20
2022-10-05T15:14:29.975Z,72.40
2022-10-05T15:15:57.836Z,72.70
2022-10-05T15:17:03.404Z,73.00
2022-10-05T15:18:40.704Z,73.10
2022-10-05T15:19:50.997Z,73.40
2022-10-05T15:21:00.699Z,73.90
2022-10-05T15:22:41.233Z,74.80
2022-10-05T15:24:21.564Z,74.80
2022-10-05T15:25:31.738Z,75.30
2022-10-05T15:26:40.175Z,75.60
2022-10-05T15:28:01.268Z,76.30
2022-10-05T15:29:51.214Z,75.90
2022-10-05T15:31:06.890Z,76.50
2022-10-05T15:32:47.346Z,76.20
2022-10-05T15:34:08.203Z,76.70
2022-10-05T15:35:36.126Z,76.70
2022-10-05T15:36:52.901Z,77.50
2022-10-05T15:38:20.806Z,78.70
2022-10-05T15:39:44.522Z,80.80
2022-10-05T15:41:04.807Z,81.00
2022-10-05T15:42:19.700Z,82.60
2022-10-05T15:43:23.659Z,83.90
2022-10-05T15:44:46.262Z,84.40
2022-10-05T15:46:04.258Z,85.10
2022-10-05T15:47:10.525Z,85.60
2022-10-05T15:48:22.300Z,85.90
2022-10-05T15:49:49.547Z,86.40
2022-10-05T15:51:10.197Z,85.50
2022-10-05T15:52:30.086Z,87.20
2022-10-05T15:54:28.927Z,86.90
2022-10-05T15:55:38.872Z,87.90
2022-10-05T15:56:47.986Z,89.00
2022-10-05T15:57:58.666Z,88.30
2022-10-05T15:59:52.007Z,89.10
2022-10-05T16:01:08.427Z,89.20
2022-10-05T16:02:24.088Z,88.60
2022-10-05T16:03:38.304Z,89.30
2022-10-05T16:05:12.197Z,90.10
2022-10-05T16:06:44.989Z,90.30
2022-10-05T16:08:10.887Z,90.10
2022-10-05T16:09:33.045Z,90.10
2022-10-05T16:10:41.326Z,90.70
2022-10-05T16:12:18.774Z,91.00
2022-10-05T16:13:49.260Z,90.90
2022-10-05T16:14:59.885Z,91.80
2022-10-05T16:16:25.072Z,91.90
2022-10-05T16:17:48.044Z,91.70
2022-10-05T16:19:07.286Z,92.40
2022-10-05T16:20:36.311Z,92.90
2022-10-05T16:22:03.346Z,93.30
2022-10-05T16:23:58.508Z,94.10
2022-10-05T16:25:22.380Z,94.20
2022-10-05T16:26:38.676Z,93.80
2022-10-05T16:27:52.893Z,94.70
2022-10-05T16:29:14.489Z,95.10
2022-10-05T16:30:22.532Z,95.40
2022-10-05T16:31:58.019Z,95.20
2022-10-05T16:33:20.466Z,95.50
2022-10-05T16:34:36.171Z,95.50
2022-10-05T16:36:09.070Z,95.90
2022-10-05T16:37:45.393Z,96.20
2022-10-05T16:39:11.857Z,96.10
2022-10-05T16:40:47.928Z,95.40
2022-10-05T16:41:56.236Z,95.80
2022-10-05T16:43:08.660Z,95.90
2022-10-05T16:44:33.046Z,95.90
2022-10-05T16:45:45.636Z,96.10
2022-10-05T16:46:58.827Z,96.10
2022-10-05T16:48:05.427Z,96.00
2022-10-05T16:49:22.125Z,95.80
2022-10-05T16:50:50.426Z,95.80
2022-10-05T16:51:59.208Z,96.50
2022-10-05T16:53:17.814Z,96.60
2022-10-05T16:54:24.512Z,96.80
2022-10-05T16:55:43.455Z,96.30
2022-10-05T16:56:54.673Z,96.60
2022-10-05T16:57:59.418Z,96.50
2022-10-05T16:59:30.144Z,96.50
2022-10-05T17:00:57.206Z,96.90
2022-10-05T17:02:02.357Z,96.70
2022-10-05T17:03:19.592Z,96.80
2022-10-05T17:04:49.180Z,97.10
2022-10-05T17:05:55.897Z,97.40
2022-10-05T17:07:26.036Z,97.20
2022-10-05T17:08:45.648Z,97.60
2022-10-05T17:10:06.156Z,97.90
2022-10-05T17:11:29.726Z,98.30
2022-10-05T17:12:56.864Z,98.30
2022-10-05T17:14:31.633Z,98.40
2022-10-05T17:16:04.223Z,98.40
2022-10-05T17:17:24.626Z,98.70
2022-10-05T17:19:04.097Z,99.20